Ontario, Indiana
Current Conditions -  °F | °C
As of 6:14 AM on Friday 28 Nov 2014 (Local Time) from KIRS Reporting Station
Broken Clouds Broken Clouds  
Wind Chill: -7°   Ceiling: 2600
Heat Index: -7°   Visibility: 10mi
Dew Point: -9°   Wind: 0mph
Humidity: 86%   Direction: NA
Pressure: 30.33"   Gusts: NA
Location:  41.7293°N, 85.4292°W
Report Text: KIRS 281114Z AUTO 00000KT 10SM BKN026 120 M07/M09 A3033 RMK AO2
Loading
Personal Weather Stations






























Interactive Weather Map New forecast layout! Learn more

10-Day Weather Forecast

Advertisements
Track Severe Weather on mobile